ADDS METAR Data INFO
IDs: Format: Raw Decoded Include TAF

Data at: 1848 UTC 17 Oct 2017

KPNC 171753Z AUTO 19008G15KT 10SM CLR 22/06 A3020 RMK AO2 SLP219 T02170061 10217 20111 58014
KPNC 171653Z AUTO 18010KT 10SM CLR 20/06 A3022 RMK AO2 SLP229 T02000061
KPNC 171553Z AUTO 18007KT 10SM CLR 17/06 A3023 RMK AO2 SLP234 T01720061
KPNC 171453Z AUTO VRB06KT 10SM CLR 16/05 A3024 RMK AO2 SLP236 T01560050 53002
KPNC 171353Z AUTO 18007KT 10SM CLR 13/04 A3023 RMK AO2 SLP232 T01280044
KPNC 171253Z AUTO 17007KT 10SM CLR 12/04 A3023 RMK AO2 SLP232 T01170039
KPNC 171153Z AUTO 18005KT 10SM CLR 11/04 A3023 RMK AO2 SLP233 T01110044 10128 20106 53001
KPNC 171053Z AUTO 17006KT 10SM CLR 11/04 A3023 RMK AO2 SLP230 T01110044
KPNC 170953Z AUTO 18005KT 10SM CLR 12/04 A3022 RMK AO2 SLP229 T01170044
KPNC 170853Z AUTO VRB05KT 10SM CLR 12/04 A3023 RMK AO2 SLP231 T01170044 58006
KPNC 170753Z AUTO 17008KT 10SM CLR 12/05 A3024 RMK AO2 SLP235 T01170050
KPNC 170653Z AUTO 00000KT 10SM CLR 12/05 A3025 RMK AO2 SLP239 T01220050
KPNC 170553Z AUTO 18005KT 10SM CLR 12/06 A3025 RMK AO2 SLP238 T01220056 10172 20111 402060033 58009
KPNC 170453Z AUTO 17004KT 10SM CLR 11/06 A3027 RMK AO2 SLP244 T01110056
KPNC 170353Z AUTO 00000KT 10SM CLR 12/05 A3028 RMK AO2 SLP249 T01220050
KPNC 170253Z AUTO 15004KT 10SM CLR 13/06 A3028 RMK AO2 SLP250 T01280056 53003
KPNC 170153Z AUTO 17004KT 10SM CLR 14/05 A3027 RMK AO2 SLP248 T01440050 $
KPNC 170053Z AUTO 16006KT 10SM CLR 16/04 A3026 RMK AO2 SLP247 T01560044 $
KPNC 162353Z AUTO 18004KT 10SM CLR 17/03 A3027 RMK AO2 SLP248 T01720033 10206 20172 56012 $
KPNC 162253Z AUTO 17007KT 10SM CLR 19/03 A3027 RMK AO2 SLP249 T01940028 $
KPNC 162153Z AUTO 15010KT 10SM CLR 20/03 A3028 RMK AO2 SLP253 T02000028 $
KPNC 162053Z AUTO 18006KT 10SM CLR 21/03 A3031 RMK AO2 SLP259 T02060033 56034 $
KPNC 161953Z AUTO 16007KT 10SM CLR 20/03 A3033 RMK AO2 SLP267 T02000028 $
KPNC 161853Z AUTO 18008KT 10SM CLR 20/04 A3037 RMK AO2 SLP281 T02000039 $
KPNC 161753Z AUTO VRB05KT 10SM CLR 18/04 A3041 RMK AO2 SLP294 T01830044 10183 20033 58011 $
KPNC 161653Z AUTO 21006KT 10SM CLR 17/04 A3044 RMK AO2 SLP305 T01720044 $
KPNC 161553Z AUTO 21005KT 10SM CLR 15/04 A3044 RMK AO2 SLP307 T01500044 $
KPNC 161453Z AUTO 00000KT 10SM CLR 12/06 A3044 RMK AO2 SLP308 T01170061 52004 $
KPNC 161353Z AUTO 00000KT 10SM CLR 08/06 A3044 RMK AO2 SLP307 T00780056 $
KPNC 161253Z AUTO 00000KT 10SM CLR 04/02 A3043 RMK AO2 SLP307 T00390022 $
KPNC 161153Z AUTO 00000KT 10SM CLR 04/03 A3043 RMK AO2 SLP304 T00390028 10067 20039 53006 $
KPNC 161053Z AUTO 00000KT 10SM CLR 04/02 A3042 RMK AO2 SLP299 T00440022 $
KPNC 160953Z AUTO 00000KT 10SM CLR 04/03 A3042 RMK AO2 SLP299 T00440028 $
KPNC 160853Z AUTO 00000KT 10SM CLR 05/03 A3041 RMK AO2 SLP296 T00500033 50002 $
KPNC 160753Z AUTO 00000KT 10SM CLR 06/04 A3042 RMK AO2 SLP299 T00560039 $
KPNC 160653Z AUTO 00000KT 10SM CLR 06/04 A3041 RMK AO2 SLP296 T00610039 $